Terminal Aerodrome Forecast
Issued by NWS

Current Version | Previous Version | Text Only | Print | Product List | Glossary On
Versions: 1 2 3 4 5 6 7 8 9 10 11 12 13 14 15 16 17 18 19 20 21 22 23 24 25
604
FTPQ31 PGUM 281728
TAFGUM
TAF

TAF
PKMJ 281728Z 2818/2918 14011KT 6SM -RA VCTS SCT014CB BKN040 OVC080
      TEMPO 2818/2822 3SM +SHRA BKN012 OVC025
     FM290000 13008KT P6SM VCSH SCT016 BKN050 OVC100=

USA.gov is the U.S. government's official web portal to all federal, state and local government web resources and services.